Albury
Weather
Information

and Archive.
Albury Local Internet Skycam This service provided and funded by Albury Local Internet

Help keep our weatherstation running:

Lavington Weatherstation live data - Conditions of Use

Last updated on 10-May-2021 at 17:16:02
Temperature
  Currently 13.6 degrees C
  Apparent Temperature ("Wind Chill") is 12.8 degrees C
  Today has ranged from 10.1 at 00:08 to 20.1 at 12:06
  Yesterday ranged from 10.1 at 06:54 to 21.2 at 12:28
Wind
  Now:   10.1kmh, gusting to  20.3kmh from 341 degrees (NNW)
  Hour:  11.8kmh, gusting to  24.8kmh
Rainfall
   2.6mm Midnight to Midnight (ie, yesterday)
   3.4mm Since Midnight (ie, so far today)
   2.6mm 9am yesterday to 9am today
  26.0mm Total this month
Misc items
  Relative humidity is 100%
  Dewpoint is 13.6 deg C
  Estimated Cloudbase is 0 feet
  Barometric Pressure is 1010.0 mbar
  Solar Insolation: 0 W/m^2
  UV Index: 0.0 (Low)
Top Solar flares in the last 24 hours

Last 24 hours Temperature Graph (click graph for history)
temperature

Last 24 hours Dynamic Wind display (click image for 4-hour image):
Wind Rose

Current Yarrawonga Weather Radar and Infrared Satellite Images from the BOM.

Hourly summaries in the tables below are cumulative and peak values
for the preceding hour, and instantaneous values at the hour.
So far today, 10-May-2021
Time   Barom.  Wind + Gust    Direction   RH   Rain    Temp.  Minimum    Maximum
01:00  1017.0   0.8   5.6kmh   28 (NNE)  100%  0.0mm   11.4  10.1@00:08 11.4@00:37
02:00  1016.0   0.2   4.2kmh  189 ( S )  100%  0.0mm   11.3  10.5@01:35 11.6@01:07
03:00  1016.0   0.4   4.8kmh   40 ( NE)  100%  0.0mm   11.0  10.9@02:48 11.4@02:07
04:00  1015.0   1.4  22.4kmh   31 (NNE)  100%  0.0mm   11.3  10.5@03:37 11.2@03:59
05:00  1015.0   2.7  12.6kmh  340 (NNW)  100%  0.0mm   11.5  10.9@04:05 11.5@04:55
06:00  1015.0   1.5   9.0kmh   19 (NNE)  100%  0.0mm   10.9  10.9@05:57 11.7@05:13
07:00  1015.0   0.7  22.4kmh  327 (NNW)  100%  0.0mm   11.2  10.7@06:05 11.3@06:31
08:00  1015.0   2.7  22.4kmh  347 (NNW)  100%  0.0mm   11.8  10.9@07:33 11.7@07:58
09:00  1016.0   3.1  14.7kmh  302 (WNW)  100%  0.0mm   14.9  11.8@08:00 15.2@08:38
10:00  1015.0   5.0  16.7kmh  325 ( NW)  100%  0.0mm   15.9  14.8@09:03 16.2@09:36
11:00  1015.0   3.5  13.1kmh  335 (NNW)  100%  0.0mm   17.4  15.8@10:01 17.6@10:51
12:00  1014.0   8.1  21.8kmh  332 (NNW)  100%  0.0mm   19.5  16.9@11:14 20.0@11:57
13:00  1013.0   7.7  22.4kmh  327 (NNW)  100%  0.0mm   18.4  18.5@12:59 20.1@12:06
14:00  1011.0   8.6  23.9kmh  257 (WSW)  100%  0.0mm   18.2  18.0@13:54 20.1@13:23
15:00  1011.0  12.3  29.6kmh  340 (NNW)  100%  0.4mm   15.4  15.2@14:52 19.1@14:19
16:00  1010.0   9.3  28.1kmh  352 ( N )  100%  2.6mm   13.9  13.9@15:57 15.7@15:11
17:00  1011.0  13.1  28.8kmh  325 ( NW)  100%  0.4mm   13.7  13.7@16:59 14.0@16:03
17:16  1010.0  11.8  24.8kmh  335 (NNW)  100%  0.0mm   13.6  13.5@17:14 13.7@17:00


Summary for yesterday, 09-May-2021
Time   Barom.  Wind + Gust    Direction   RH   Rain    Temp.  Minimum    Maximum
01:00  1018.0   4.4   9.3kmh  322 ( NW)  100%  0.0mm   13.0  12.2@00:14 13.6@00:00
02:00  1018.0   3.6   9.5kmh  346 (NNW)  100%  0.0mm   13.7  12.9@01:02 13.8@01:48
03:00  1018.0   5.3  13.9kmh    0 ( N )  100%  0.0mm   13.2  13.3@02:59 14.0@02:16
04:00  1018.0   5.2  12.9kmh  320 ( NW)  100%  0.0mm   11.7  11.7@03:59 13.2@03:00
05:00  1018.0   6.3  16.3kmh  358 ( N )  100%  0.0mm   11.1  10.9@04:18 11.7@04:00
06:00  1019.0   7.0  16.0kmh   17 (NNE)  100%  0.0mm   11.2  10.7@05:32 11.2@05:02
07:00  1019.0   4.8  13.0kmh  294 (WNW)  100%  0.0mm   10.2  10.1@06:54 11.2@06:00
08:00  1020.0   3.2  10.1kmh   43 ( NE)  100%  0.0mm   15.0  10.1@07:01 14.9@07:59
09:00  1020.0   2.8   8.2kmh   53 ( NE)  100%  0.0mm   16.2  14.0@08:33 16.7@08:55
10:00  1020.0   2.1   6.1kmh  179 ( S )  100%  0.0mm   15.9  15.7@09:09 17.5@09:21
11:00  1020.0   4.0  12.1kmh   30 (NNE)  100%  0.0mm   19.9  15.8@10:01 20.0@10:58
12:00  1019.0   4.6  12.1kmh   10 ( N )  100%  0.0mm   18.6  18.3@11:48 19.9@11:00
13:00  1018.0   3.6  12.3kmh  162 (SSE)  100%  0.0mm   20.2  18.4@12:42 21.2@12:28
14:00  1017.0   4.5  14.8kmh  289 (WNW)  100%  0.0mm   20.5  18.3@13:40 20.6@13:09
15:00  1017.0   6.8  14.9kmh  165 (SSE)  100%  0.8mm   15.2  15.4@14:59 20.6@14:01
16:00  1017.0   4.7  13.0kmh  151 (SSE)  100%  1.8mm   14.5  14.2@15:37 15.2@15:00
17:00  1017.0   2.8   8.5kmh  107 (ESE)  100%  0.0mm   14.8  14.3@16:20 15.9@16:40
18:00  1017.0   1.0   7.1kmh   73 (ENE)  100%  0.0mm   13.1  13.1@17:57 14.8@17:00
19:00  1017.0   0.8   8.1kmh  353 ( N )  100%  0.0mm   11.7  11.7@18:58 13.1@18:00
20:00  1018.0   0.1   4.9kmh   56 ( NE)  100%  0.0mm   11.9  11.5@19:31 12.0@19:16
21:00  1018.0   0.4   6.0kmh   34 ( NE)  100%  0.0mm   12.2  11.7@20:22 12.3@20:57
22:00  1018.0   0.6   6.0kmh   39 ( NE)  100%  0.0mm   11.7  11.7@21:53 12.7@21:42
23:00  1018.0   0.3   5.2kmh  122 (ESE)  100%  0.0mm   10.8  10.6@22:55 11.8@22:09
00:00  1017.0   0.0   2.8kmh    8 ( N )  100%  0.0mm   10.5  10.2@23:43 10.9@23:02